Time;durP1;ratioP1;P1;durP2;ratioP2;P2;SDS_P1;SDS_P2;PMS_P1;PMS_P2;Temp;Humidity;BMP_temperature;BMP_pressure;BME280_temperature;BME280_humidity;BME280_pressure;Samples;Min_cycle;Max_cycle;Signal;HPM_P1;HPM_P2
2020/12/25 00:01:21;;;;;;;70.07;42.38;;;332.80;1868.80;;;;;;5071209;28;20120;-57
2020/12/25 00:03:47;;;;;;;61.80;41.08;;;308.00;1868.80;;;;;;5070268;28;20112;-59
2020/12/25 00:06:13;;;;;;;65.05;41.30;;;307.90;1894.40;;;;;;5071859;28;20127;-57
2020/12/25 00:08:39;;;;;;;60.35;39.10;;;307.90;1894.40;;;;;;5050348;28;20108;-57
2020/12/25 00:11:04;;;;;;;56.63;37.08;;;308.00;1894.40;;;;;;5071864;28;20028;-57
2020/12/25 00:13:30;;;;;;;56.85;35.88;;;308.00;1920.00;;;;;;5072452;28;20016;-57
2020/12/25 00:15:56;;;;;;;58.92;37.72;;;307.80;1945.60;;;;;;5071780;28;20479;-57
2020/12/25 00:18:22;;;;;;;49.83;35.03;;;307.50;1996.80;;;;;;5071108;28;20021;-57
2020/12/25 00:20:51;;;;;;;52.53;33.08;;;307.70;1971.20;;;;;;5071666;28;20491;-58
2020/12/25 00:23:17;;;;;;;50.03;32.97;;;307.60;1996.80;;;;;;5070573;28;20422;-59
2020/12/25 00:25:43;;;;;;;46.28;30.92;;;307.60;1996.80;;;;;;5071333;28;20150;-58
2020/12/25 00:28:09;;;;;;;44.60;29.60;;;307.70;1996.80;;;;;;5071062;28;20066;-57
2020/12/25 00:30:34;;;;;;;42.65;27.25;;;307.70;1996.80;;;;;;5071185;28;20032;-57
2020/12/25 00:33:00;;;;;;;39.25;26.60;;;307.70;2022.40;;;;;;5071318;28;20459;-57
2020/12/25 00:35:26;;;;;;;38.72;26.08;;;307.50;2022.40;;;;;;5071350;28;20032;-58
2020/12/25 00:37:51;;;;;;;40.17;25.88;;;307.50;2048.00;;;;;;5071255;28;20031;-59
2020/12/25 00:40:17;;;;;;;40.58;26.92;;;282.50;2073.60;;;;;;5070975;28;20051;-59
2020/12/25 00:42:43;;;;;;;38.10;26.05;;;282.30;2099.20;;;;;;5071462;28;20032;-57
2020/12/25 00:45:09;;;;;;;37.40;25.48;;;282.40;2073.60;;;;;;5071158;28;20016;-58
2020/12/25 00:47:34;;;;;;;40.05;26.60;;;282.40;2099.20;;;;;;5071457;28;20024;-59
2020/12/25 00:50:00;;;;;;;37.17;25.48;;;282.50;2099.20;;;;;;5071158;28;20035;-57
2020/12/25 00:52:26;;;;;;;39.78;25.13;;;307.30;2099.20;;;;;;5072216;28;20016;-58
2020/12/25 00:54:52;;;;;;;39.05;27.98;;;307.20;2099.20;;;;;;5071859;28;20035;-57
2020/12/25 00:57:18;;;;;;;38.20;26.20;;;282.50;2099.20;;;;;;5072100;28;20470;-58
2020/12/25 00:59:44;;;;;;;35.75;24.20;;;282.50;2099.20;;;;;;5072799;28;20019;-57
2020/12/25 01:02:10;;;;;;;37.50;24.77;;;282.40;2099.20;;;;;;5071538;28;20391;-57
2020/12/25 01:04:36;;;;;;;34.63;23.50;;;282.30;2124.80;;;;;;5072076;28;20016;-58
2020/12/25 01:07:08;;;;;;;34.50;24.40;;;307.20;2124.80;;;;;;5071771;28;20047;-57
2020/12/25 01:09:35;;;;;;;35.47;26.20;;;282.40;2099.20;;;;;;5072084;28;20052;-58
2020/12/25 01:12:02;;;;;;;31.23;23.27;;;282.10;2150.40;;;;;;5071391;28;20033;-58
2020/12/25 01:14:29;;;;;;;35.47;23.77;;;282.20;2150.40;;;;;;5072004;28;20111;-58
2020/12/25 01:16:56;;;;;;;32.60;22.98;;;282.10;2150.40;;;;;;5071698;28;20411;-57
2020/12/25 01:19:27;;;;;;;30.95;23.05;;;282.20;2150.40;;;;;;5072043;28;20031;-58
2020/12/25 01:21:53;;;;;;;31.58;22.75;;;282.10;2150.40;;;;;;5075455;28;20037;-58
2020/12/25 01:24:19;;;;;;;34.22;23.33;;;282.10;2176.00;;;;;;5075986;28;20043;-58
2020/12/25 01:26:45;;;;;;;34.95;23.58;;;282.00;2176.00;;;;;;5075770;28;20028;-57
2020/12/25 01:29:11;;;;;;;30.00;21.98;;;282.20;2150.40;;;;;;5075723;28;20036;-58
2020/12/25 01:31:37;;;;;;;34.15;23.10;;;282.20;2150.40;;;;;;5075380;28;20050;-56
2020/12/25 01:34:03;;;;;;;29.25;20.42;;;282.30;2150.40;;;;;;5075656;28;20016;-57
2020/12/25 01:36:29;;;;;;;31.38;21.48;;;282.40;2124.80;;;;;;5074218;28;20028;-57
2020/12/25 01:38:55;;;;;;;35.75;22.85;;;282.40;2124.80;;;;;;5075440;28;20386;-56
2020/12/25 01:41:21;;;;;;;30.38;20.75;;;282.40;2124.80;;;;;;5075126;28;20105;-57
2020/12/25 01:43:48;;;;;;;31.20;22.30;;;282.30;2150.40;;;;;;5075303;28;20127;-57
2020/12/25 01:46:15;;;;;;;35.25;21.35;;;282.20;2150.40;;;;;;5075185;28;20056;-57
2020/12/25 01:48:43;;;;;;;32.30;20.92;;;282.40;2124.80;;;;;;5070916;28;20103;-57
2020/12/25 01:51:10;;;;;;;28.20;20.17;;;282.40;2099.20;;;;;;5075142;28;20107;-56
2020/12/25 01:53:36;;;;;;;34.97;20.92;;;282.40;2124.80;;;;;;5074769;28;20539;-57
2020/12/25 01:56:03;;;;;;;31.15;21.05;;;282.50;2099.20;;;;;;5074793;28;20475;-56
2020/12/25 01:58:30;;;;;;;34.20;22.67;;;282.50;2099.20;;;;;;5074613;28;20108;-57
2020/12/25 02:00:57;;;;;;;36.90;22.48;;;282.50;2099.20;;;;;;5074937;28;20048;-56
2020/12/25 02:03:23;;;;;;;34.45;24.15;;;282.40;2124.80;;;;;;5074889;28;20525;-56
2020/12/25 02:05:48;;;;;;;37.08;24.70;;;282.40;2099.20;;;;;;5074833;28;20079;-57
2020/12/25 02:08:15;;;;;;;35.22;23.40;;;282.40;2099.20;;;;;;5074691;28;20021;-57
2020/12/25 02:10:41;;;;;;;38.28;23.70;;;282.40;2099.20;;;;;;5074679;28;20055;-57
2020/12/25 02:13:08;;;;;;;36.00;23.63;;;282.40;2099.20;;;;;;5075205;28;20037;-57
2020/12/25 02:15:35;;;;;;;38.50;23.73;;;282.30;2124.80;;;;;;5074867;28;20039;-57
2020/12/25 02:18:01;;;;;;;38.67;20.20;;;281.90;2150.40;;;;;;5074645;28;20021;-57
2020/12/25 02:20:27;;;;;;;33.83;20.02;;;281.60;2176.00;;;;;;5074704;28;20470;-57
2020/12/25 02:22:53;;;;;;;39.17;23.15;;;281.80;2176.00;;;;;;5074766;28;20115;-56
2020/12/25 02:25:19;;;;;;;36.97;22.02;;;281.70;2201.60;;;;;;5074719;28;20415;-57
2020/12/25 02:27:44;;;;;;;34.88;23.25;;;281.70;2201.60;;;;;;5074150;28;20021;-56
2020/12/25 02:30:10;;;;;;;37.22;24.45;;;281.60;2227.20;;;;;;5065642;28;20021;-56
2020/12/25 02:32:37;;;;;;;35.50;22.05;;;256.80;2227.20;;;;;;5074243;28;20036;-56
2020/12/25 02:35:04;;;;;;;33.25;21.85;;;256.90;2201.60;;;;;;5074171;28;20016;-57
2020/12/25 02:37:30;;;;;;;34.58;22.75;;;281.60;2201.60;;;;;;5074332;28;20059;-57
2020/12/25 02:39:56;;;;;;;36.88;22.40;;;281.70;2201.60;;;;;;5074462;28;20016;-57
2020/12/25 02:42:22;;;;;;;37.95;23.92;;;281.80;2176.00;;;;;;5071551;28;20544;-57
2020/12/25 02:44:47;;;;;;;37.08;22.25;;;281.70;2201.60;;;;;;5074427;28;20104;-57
2020/12/25 02:47:13;;;;;;;43.85;24.05;;;281.90;2176.00;;;;;;5074190;28;20031;-57
2020/12/25 02:49:39;;;;;;;32.42;22.08;;;281.80;2176.00;;;;;;5074231;28;20024;-57
2020/12/25 02:52:05;;;;;;;35.10;21.23;;;281.60;2201.60;;;;;;5074229;28;20031;-57
2020/12/25 02:54:32;;;;;;;29.63;21.63;;;281.80;2176.00;;;;;;5074159;28;20116;-57
2020/12/25 02:56:58;;;;;;;31.95;20.30;;;281.60;2201.60;;;;;;5074195;28;20028;-57
2020/12/25 02:59:24;;;;;;;31.88;20.38;;;256.80;2201.60;;;;;;5074186;28;20078;-57
2020/12/25 03:01:50;;;;;;;28.90;20.17;;;256.50;2227.20;;;;;;5073913;28;20493;-57
2020/12/25 03:04:16;;;;;;;27.85;19.55;;;256.50;2252.80;;;;;;5073880;28;20016;-57
2020/12/25 03:06:42;;;;;;;26.35;17.48;;;256.50;2227.20;;;;;;5073461;28;20494;-57
2020/12/25 03:09:08;;;;;;;24.38;16.80;;;256.70;2201.60;;;;;;5073993;28;20078;-56
2020/12/25 03:11:34;;;;;;;25.23;17.90;;;256.80;2201.60;;;;;;5073763;28;20024;-57
2020/12/25 03:13:59;;;;;;;20.83;15.63;;;256.80;2201.60;;;;;;5073457;28;20095;-57
2020/12/25 03:16:25;;;;;;;21.15;15.93;;;256.90;2176.00;;;;;;5074108;28;20039;-56
2020/12/25 03:18:50;;;;;;;20.35;14.48;;;281.60;2201.60;;;;;;5073699;28;20024;-57
2020/12/25 03:21:16;;;;;;;22.60;14.95;;;281.60;2176.00;;;;;;5073483;28;20036;-56
2020/12/25 03:23:42;;;;;;;22.15;14.73;;;281.60;2176.00;;;;;;5073223;28;20021;-57
2020/12/25 03:26:08;;;;;;;17.02;12.88;;;281.70;2176.00;;;;;;5073398;28;20493;-57
2020/12/25 03:28:34;;;;;;;19.45;12.68;;;281.60;2176.00;;;;;;5073595;28;20391;-57
2020/12/25 03:31:00;;;;;;;16.05;12.35;;;281.60;2176.00;;;;;;5073351;28;20033;-56
2020/12/25 03:33:25;;;;;;;13.63;10.50;;;281.70;2150.40;;;;;;5073325;28;20033;-58
2020/12/25 03:35:51;;;;;;;16.13;11.43;;;281.90;2124.80;;;;;;5071792;28;20048;-58
2020/12/25 03:38:18;;;;;;;15.65;10.88;;;281.70;2150.40;;;;;;5073019;28;20016;-58
2020/12/25 03:40:44;;;;;;;13.27;10.30;;;281.70;2150.40;;;;;;5073622;28;20033;-56
2020/12/25 03:43:09;;;;;;;13.63;10.00;;;281.80;2150.40;;;;;;5072583;28;20371;-56
2020/12/25 03:45:35;;;;;;;15.07;11.23;;;281.60;2150.40;;;;;;5073543;28;20028;-57
2020/12/25 03:48:01;;;;;;;12.90;9.57;;;256.80;2150.40;;;;;;5072847;28;20141;-57
2020/12/25 03:50:30;;;;;;;12.13;9.40;;;256.80;2150.40;;;;;;5073191;28;20028;-56
2020/12/25 03:52:55;;;;;;;12.95;10.10;;;256.90;2150.40;;;;;;5072448;28;20035;-57
2020/12/25 03:55:22;;;;;;;12.50;9.70;;;256.80;2150.40;;;;;;5073313;28;20028;-57
2020/12/25 03:57:48;;;;;;;13.75;9.60;;;256.90;2150.40;;;;;;5054923;28;20031;-56
2020/12/25 04:00:14;;;;;;;12.07;9.02;;;281.60;2150.40;;;;;;5072863;28;20031;-57
2020/12/25 04:02:39;;;;;;;12.05;8.65;;;281.60;2150.40;;;;;;5054658;28;20436;-57
2020/12/25 04:05:06;;;;;;;13.32;9.05;;;256.80;2150.40;;;;;;5072437;28;20025;-57
2020/12/25 04:07:32;;;;;;;11.98;9.88;;;256.60;2201.60;;;;;;5071960;28;20033;-57
2020/12/25 04:09:58;;;;;;;13.93;9.65;;;256.30;2227.20;;;;;;5071793;28;20111;-57
2020/12/25 04:12:24;;;;;;;13.30;10.25;;;256.20;2252.80;;;;;;5071528;28;20422;-57
2020/12/25 04:14:49;;;;;;;13.68;10.25;;;231.30;2252.80;;;;;;5072204;28;20051;-57
2020/12/25 04:17:15;;;;;;;14.15;10.07;;;231.10;2252.80;;;;;;5071937;28;20043;-57
2020/12/25 04:19:41;;;;;;;16.45;11.23;;;230.80;2252.80;;;;;;5071832;28;20021;-57
2020/12/25 04:22:06;;;;;;;15.63;10.77;;;230.50;2252.80;;;;;;5071569;28;20063;-57
2020/12/25 04:24:32;;;;;;;13.88;9.52;;;230.60;2252.80;;;;;;5071924;28;20021;-57
2020/12/25 04:26:58;;;;;;;14.38;10.23;;;230.50;2252.80;;;;;;5071584;28;20522;-56
2020/12/25 04:29:24;;;;;;;13.82;9.60;;;230.50;2252.80;;;;;;5072036;28;20113;-57
2020/12/25 04:31:49;;;;;;;14.82;9.20;;;205.70;2252.80;;;;;;5071354;28;20032;-56
2020/12/25 04:34:15;;;;;;;14.60;10.57;;;205.60;2252.80;;;;;;5071743;28;20029;-57
2020/12/25 04:36:41;;;;;;;12.65;9.25;;;205.60;2252.80;;;;;;5071634;28;20123;-56
2020/12/25 04:39:07;;;;;;;15.77;10.55;;;205.60;2252.80;;;;;;5071620;28;20505;-57
2020/12/25 04:41:34;;;;;;;13.32;9.45;;;205.70;2252.80;;;;;;5071123;28;20037;-57
2020/12/25 04:44:00;;;;;;;13.63;9.07;;;230.40;2252.80;;;;;;5071852;28;20046;-57
2020/12/25 04:46:26;;;;;;;12.07;8.60;;;230.50;2252.80;;;;;;5057546;28;20029;-57
2020/12/25 04:48:52;;;;;;;12.40;9.10;;;230.60;2252.80;;;;;;5071572;28;20020;-57
2020/12/25 04:51:19;;;;;;;12.85;7.88;;;230.70;2252.80;;;;;;5070908;28;20374;-57
2020/12/25 04:53:52;;;;;;;12.40;7.40;;;230.80;2252.80;;;;;;5071609;28;20424;-57
2020/12/25 04:56:20;;;;;;;11.38;8.10;;;230.80;2252.80;;;;;;5073536;28;20029;-57
2020/12/25 04:58:50;;;;;;;14.35;9.38;;;230.90;2252.80;;;;;;5074935;28;20103;-57
2020/12/25 05:01:15;;;;;;;11.45;8.00;;;230.90;2252.80;;;;;;5074678;28;20123;-57
2020/12/25 05:03:43;;;;;;;10.25;8.43;;;231.00;2252.80;;;;;;5075207;28;20435;-57
2020/12/25 05:06:11;;;;;;;10.87;8.07;;;231.00;2252.80;;;;;;5052961;28;638120;-57
2020/12/25 05:08:42;;;;;;;12.10;8.20;;;231.00;2252.80;;;;;;5076009;28;20039;-57
2020/12/25 05:11:09;;;;;;;11.25;8.20;;;231.20;2252.80;;;;;;5076011;28;20509;-57
2020/12/25 05:13:39;;;;;;;13.95;8.48;;;231.20;2252.80;;;;;;5076126;28;20020;-57
2020/12/25 05:16:04;;;;;;;11.23;7.22;;;231.30;2252.80;;;;;;5076454;28;20059;-56
2020/12/25 05:18:31;;;;;;;12.02;7.72;;;231.10;2252.80;;;;;;5075914;28;20455;-56
2020/12/25 05:21:08;;;;;;;10.45;7.13;;;231.30;2252.80;;;;;;5076138;28;20489;-56
2020/12/25 05:23:36;;;;;;;8.25;5.70;;;256.10;2252.80;;;;;;5076047;28;20020;-57
2020/12/25 05:26:04;;;;;;;7.32;5.78;;;256.10;2252.80;;;;;;5075813;28;20103;-55
2020/12/25 05:28:30;;;;;;;8.65;5.22;;;256.00;2252.80;;;;;;5075748;28;20067;-57
2020/12/25 05:30:58;;;;;;;6.45;5.25;;;256.00;2252.80;;;;;;5075981;28;20052;-57
2020/12/25 05:33:24;;;;;;;7.55;5.47;;;256.00;2252.80;;;;;;5075612;28;20027;-57
2020/12/25 05:35:55;;;;;;;7.88;5.25;;;256.10;2252.80;;;;;;5075636;28;20024;-57
2020/12/25 05:38:22;;;;;;;8.18;5.45;;;256.30;2252.80;;;;;;5075632;28;20116;-57
2020/12/25 05:40:48;;;;;;;6.50;5.28;;;256.40;2252.80;;;;;;5073454;28;20051;-57
2020/12/25 05:43:16;;;;;;;7.03;5.57;;;256.40;2252.80;;;;;;5075145;28;20024;-56
2020/12/25 05:45:42;;;;;;;11.00;6.93;;;256.40;2252.80;;;;;;5075581;28;20060;-57
2020/12/25 05:48:08;;;;;;;8.10;6.47;;;256.40;2252.80;;;;;;5075152;28;20013;-57
2020/12/25 05:50:35;;;;;;;6.90;5.45;;;256.50;2252.80;;;;;;5075437;28;20032;-56
2020/12/25 05:53:01;;;;;;;8.98;5.47;;;256.60;2252.80;;;;;;5075121;28;20115;-57
2020/12/25 05:55:27;;;;;;;11.93;8.05;;;256.60;2252.80;;;;;;5075334;28;20050;-57
2020/12/25 05:57:55;;;;;;;11.57;7.03;;;256.70;2252.80;;;;;;5074751;28;20027;-57
2020/12/25 06:00:22;;;;;;;8.55;5.32;;;256.70;2252.80;;;;;;5075314;28;20029;-57
2020/12/25 06:02:53;;;;;;;6.70;5.68;;;256.80;2252.80;;;;;;5074914;28;20032;-57
2020/12/25 06:05:20;;;;;;;7.63;5.00;;;256.90;2252.80;;;;;;5074984;28;20364;-57
2020/12/25 06:07:50;;;;;;;8.07;6.53;;;281.60;2278.40;;;;;;5074575;28;20029;-57
2020/12/25 06:10:21;;;;;;;7.97;5.85;;;281.60;2278.40;;;;;;5074758;28;20051;-57
2020/12/25 06:12:47;;;;;;;7.15;6.10;;;281.70;2278.40;;;;;;5074850;28;20025;-57
2020/12/25 06:15:18;;;;;;;10.27;7.20;;;281.70;2278.40;;;;;;5075160;28;20071;-57
2020/12/25 06:18:19;;;;;;;11.05;8.18;;;281.90;2278.40;;;;;;5074598;28;20059;-57
2020/12/25 06:20:55;;;;;;;12.15;7.18;;;281.70;2278.40;;;;;;5075234;28;20028;-57
2020/12/25 06:23:23;;;;;;;12.05;7.25;;;281.70;2278.40;;;;;;5074370;28;20020;-58
2020/12/25 06:25:51;;;;;;;9.18;7.30;;;281.90;2278.40;;;;;;5075027;28;20021;-58
2020/12/25 06:28:18;;;;;;;13.90;8.43;;;281.90;2278.40;;;;;;5072894;28;20025;-58
2020/12/25 06:30:44;;;;;;;12.80;8.55;;;281.90;2278.40;;;;;;5074816;28;20021;-58
2020/12/25 06:33:10;;;;;;;14.70;8.48;;;281.90;2278.40;;;;;;5074513;28;20352;-57
2020/12/25 06:35:40;;;;;;;14.70;8.55;;;282.10;2252.80;;;;;;5074488;28;20044;-57
2020/12/25 06:38:10;;;;;;;12.95;8.95;;;282.10;2227.20;;;;;;5074274;28;20032;-57
2020/12/25 06:40:37;;;;;;;11.90;9.43;;;282.20;2201.60;;;;;;5074409;28;20025;-58
2020/12/25 06:43:11;;;;;;;13.40;10.90;;;282.20;2227.20;;;;;;5074313;28;20478;-57
2020/12/25 06:45:37;;;;;;;14.35;12.55;;;282.20;2201.60;;;;;;5074373;28;20032;-58
2020/12/25 06:48:17;;;;;;;15.43;11.20;;;282.10;2252.80;;;;;;5074102;28;20400;-57
2020/12/25 06:50:52;;;;;;;15.00;10.27;;;256.80;2252.80;;;;;;5074150;28;20021;-57
2020/12/25 06:53:41;;;;;;;18.42;13.68;;;256.90;2227.20;;;;;;5074233;28;20012;-58
2020/12/25 06:56:21;;;;;;;22.73;15.75;;;256.40;2252.80;;;;;;5073609;28;20032;-57
2020/12/25 06:58:54;;;;;;;22.10;15.95;;;256.40;2252.80;;;;;;5073975;28;20059;-58
2020/12/25 07:01:43;;;;;;;22.50;16.90;;;256.30;2252.80;;;;;;5056082;28;20063;-58
2020/12/25 07:04:44;;;;;;;;;;;256.20;2252.80;;;;;;5074433;28;20021;-58
2020/12/25 07:07:10;;;;;;;23.88;15.25;;;256.20;2252.80;;;;;;4972673;28;20333;-57
2020/12/25 07:09:40;;;;;;;22.85;16.05;;;256.10;2252.80;;;;;;4973011;28;20158;-57
2020/12/25 07:12:08;;;;;;;22.10;14.40;;;256.00;2252.80;;;;;;4972892;28;20034;-58
2020/12/25 07:14:34;;;;;;;22.40;14.40;;;256.10;2252.80;;;;;;4972719;28;20094;-57
2020/12/25 07:17:00;;;;;;;19.55;14.30;;;231.20;2252.80;;;;;;4972182;28;20042;-57
2020/12/25 07:19:25;;;;;;;21.92;14.52;;;231.10;2252.80;;;;;;4971955;28;20441;-57
2020/12/25 07:21:52;;;;;;;19.33;13.60;;;231.10;2252.80;;;;;;4972481;28;20038;-58
2020/12/25 07:24:18;;;;;;;19.50;13.18;;;231.20;2252.80;;;;;;4972860;28;20027;-58
2020/12/25 07:26:46;;;;;;;20.80;14.50;;;231.30;2252.80;;;;;;4971864;28;20125;-57
2020/12/25 07:29:13;;;;;;;21.38;14.65;;;256.00;2252.80;;;;;;4972631;28;20039;-58
2020/12/25 07:31:48;;;;;;;17.33;10.38;;;256.10;2252.80;;;;;;4972328;28;20026;-59
2020/12/25 07:34:24;;;;;;;20.50;12.38;;;256.20;2252.80;;;;;;4964219;28;20528;-57
2020/12/25 07:36:52;;;;;;;17.02;12.18;;;231.20;2252.80;;;;;;4948965;28;20488;-56
2020/12/25 07:39:18;;;;;;;19.42;13.23;;;231.10;2252.80;;;;;;4963942;28;20158;-64
2020/12/25 07:41:45;;;;;;;18.92;12.35;;;231.20;2252.80;;;;;;5047677;28;20127;-56
2020/12/25 07:44:10;;;;;;;16.33;11.05;;;231.00;2252.80;;;;;;5072596;28;20225;-56
2020/12/25 07:46:37;;;;;;;14.32;10.65;;;231.30;2252.80;;;;;;5072793;28;20024;-56
2020/12/25 07:49:04;;;;;;;15.52;10.60;;;256.10;2252.80;;;;;;5072888;28;20138;-56
2020/12/25 07:51:30;;;;;;;12.95;10.55;;;256.10;2252.80;;;;;;5072896;28;20020;-57
2020/12/25 07:53:57;;;;;;;13.77;9.75;;;256.30;2252.80;;;;;;5073074;28;20497;-56
2020/12/25 07:56:26;;;;;;;12.52;9.30;;;256.00;2252.80;;;;;;5071573;28;20051;-56
2020/12/25 07:58:53;;;;;;;10.63;8.82;;;256.30;2252.80;;;;;;5071868;28;20028;-56
2020/12/25 08:01:20;;;;;;;13.43;10.55;;;256.20;2252.80;;;;;;5072311;28;20039;-57
2020/12/25 08:03:46;;;;;;;10.98;8.20;;;256.10;2252.80;;;;;;5072673;28;20117;-56
2020/12/25 08:06:20;;;;;;;12.52;9.15;;;256.30;2252.80;;;;;;5072216;28;20044;-55
2020/12/25 08:08:48;;;;;;;8.73;6.65;;;256.50;2252.80;;;;;;5070461;28;20305;-57
2020/12/25 08:11:16;;;;;;;10.05;7.82;;;256.70;2227.20;;;;;;5072199;28;20033;-56
2020/12/25 08:13:43;;;;;;;7.60;6.50;;;256.70;2201.60;;;;;;5072368;28;20021;-56
2020/12/25 08:16:10;;;;;;;8.88;7.40;;;256.80;2201.60;;;;;;5071711;28;20038;-56
2020/12/25 08:18:36;;;;;;;7.78;6.35;;;256.70;2176.00;;;;;;5072731;28;20056;-55
2020/12/25 08:21:03;;;;;;;10.68;7.80;;;256.80;2176.00;;;;;;5070845;28;20029;-55
2020/12/25 08:23:35;;;;;;;10.15;6.88;;;256.90;2201.60;;;;;;5072441;28;20028;-57
2020/12/25 08:26:02;;;;;;;11.50;7.47;;;256.60;2201.60;;;;;;5072334;28;20033;-55
2020/12/25 08:28:31;;;;;;;11.70;8.75;;;256.80;2201.60;;;;;;5072242;28;20467;-56
2020/12/25 08:30:58;;;;;;;11.02;8.43;;;256.80;2201.60;;;;;;5072476;28;20074;-57
2020/12/25 08:33:27;;;;;;;9.65;7.68;;;256.90;2176.00;;;;;;5072545;28;20051;-55
2020/12/25 08:35:54;;;;;;;16.05;8.45;;;256.90;2150.40;;;;;;5072559;28;20020;-54
2020/12/25 08:38:20;;;;;;;10.82;8.48;;;256.80;2124.80;;;;;;5072120;28;20104;-56
2020/12/25 08:40:48;;;;;;;14.20;9.65;;;256.60;2176.00;;;;;;5072353;28;20036;-55
2020/12/25 08:43:17;;;;;;;12.52;8.82;;;256.60;2201.60;;;;;;5072312;28;20024;-56
2020/12/25 08:45:58;;;;;;;12.48;9.02;;;256.80;2201.60;;;;;;5072225;28;20028;-55
2020/12/25 08:48:24;;;;;;;13.60;9.98;;;256.80;2201.60;;;;;;5071249;28;20043;-54
2020/12/25 08:50:50;;;;;;;14.15;10.65;;;256.80;2227.20;;;;;;5072268;28;20024;-54
2020/12/25 08:53:19;;;;;;;15.20;11.43;;;256.80;2201.60;;;;;;5072282;28;20155;-56
2020/12/25 08:55:55;;;;;;;15.38;11.75;;;256.90;2201.60;;;;;;5072295;28;20028;-56
2020/12/25 08:58:22;;;;;;;17.02;11.80;;;256.90;2201.60;;;;;;5072076;28;20028;-55
2020/12/25 09:01:02;;;;;;;20.17;11.98;;;281.60;2227.20;;;;;;5070876;28;20021;-55
2020/12/25 09:03:40;;;;;;;17.48;12.93;;;281.60;2252.80;;;;;;5067104;28;20029;-54
2020/12/25 09:06:08;;;;;;;18.10;12.75;;;281.70;2201.60;;;;;;5071765;28;20094;-54
2020/12/25 09:08:34;;;;;;;18.55;13.43;;;281.70;2227.20;;;;;;5072221;28;20021;-54
2020/12/25 09:10:59;;;;;;;23.30;14.32;;;281.60;2176.00;;;;;;5071935;28;20028;-55
2020/12/25 09:13:26;;;;;;;22.35;15.00;;;281.60;2227.20;;;;;;5072233;28;20375;-54
2020/12/25 09:15:52;;;;;;;22.55;15.43;;;281.70;2227.20;;;;;;5072024;28;20016;-54
2020/12/25 09:18:17;;;;;;;20.27;15.20;;;281.70;2227.20;;;;;;5072073;28;20039;-54
2020/12/25 09:20:43;;;;;;;20.33;14.93;;;281.80;2227.20;;;;;;5071785;28;20021;-54
2020/12/25 09:23:09;;;;;;;20.55;16.15;;;281.70;2227.20;;;;;;5071671;28;20025;-54
2020/12/25 09:25:35;;;;;;;41.63;25.85;;;281.70;2227.20;;;;;;5071876;28;20017;-55
2020/12/25 09:28:00;;;;;;;21.02;15.43;;;281.70;2227.20;;;;;;5071843;28;20028;-55
2020/12/25 09:30:26;;;;;;;26.00;20.50;;;281.60;2201.60;;;;;;5071436;28;20096;-55
2020/12/25 09:32:52;;;;;;;24.63;17.45;;;281.60;2227.20;;;;;;5071916;28;20396;-54
2020/12/25 09:35:17;;;;;;;24.60;18.08;;;281.70;2227.20;;;;;;5072040;28;20514;-55
2020/12/25 09:37:43;;;;;;;23.15;15.25;;;281.70;2201.60;;;;;;5071357;28;20017;-54
2020/12/25 09:40:08;;;;;;;22.65;16.35;;;281.70;2201.60;;;;;;5072050;28;20025;-54
2020/12/25 09:42:34;;;;;;;22.40;15.88;;;281.80;2201.60;;;;;;5074423;28;20410;-55
2020/12/25 09:45:00;;;;;;;21.58;16.02;;;281.70;2176.00;;;;;;5075682;28;20484;-54
2020/12/25 09:47:25;;;;;;;24.85;18.33;;;281.80;2201.60;;;;;;5075043;28;20550;-54
2020/12/25 09:49:51;;;;;;;22.73;17.75;;;281.80;2176.00;;;;;;5075269;28;20402;-55
2020/12/25 09:52:17;;;;;;;21.27;15.05;;;281.70;2227.20;;;;;;5075557;28;20379;-55
2020/12/25 09:54:42;;;;;;;23.38;14.63;;;256.80;2150.40;;;;;;5075380;28;20055;-55
2020/12/25 09:57:08;;;;;;;21.42;13.90;;;256.40;2201.60;;;;;;5075239;28;20032;-56
2020/12/25 09:59:33;;;;;;;26.00;14.82;;;256.70;2201.60;;;;;;5075199;28;20083;-55
2020/12/25 10:01:59;;;;;;;19.33;14.10;;;256.80;2201.60;;;;;;5075053;28;20028;-54
2020/12/25 10:04:25;;;;;;;22.90;13.95;;;281.60;2227.20;;;;;;5074838;28;20032;-54
2020/12/25 10:06:54;;;;;;;24.88;16.30;;;281.60;2252.80;;;;;;5074377;28;20064;-55
2020/12/25 10:09:20;;;;;;;28.52;16.80;;;281.60;2227.20;;;;;;5075877;28;20027;-54
2020/12/25 10:11:46;;;;;;;21.83;14.35;;;281.70;2227.20;;;;;;5074230;28;20449;-54
2020/12/25 10:14:11;;;;;;;21.27;14.13;;;281.90;2176.00;;;;;;5074845;28;20402;-55
2020/12/25 10:16:37;;;;;;;25.60;15.07;;;281.80;2150.40;;;;;;5074143;28;20065;-54
2020/12/25 10:19:03;;;;;;;24.63;15.70;;;281.70;2150.40;;;;;;5074872;28;20020;-60
2020/12/25 10:21:28;;;;;;;28.05;16.52;;;281.60;2176.00;;;;;;5074069;28;20093;-55
2020/12/25 10:23:54;;;;;;;25.33;18.30;;;281.80;2176.00;;;;;;5073973;28;20035;-54
2020/12/25 10:26:20;;;;;;;22.05;16.27;;;281.80;2201.60;;;;;;5074044;28;20132;-54
2020/12/25 10:28:45;;;;;;;29.35;17.58;;;281.80;2176.00;;;;;;5074778;28;20026;-54
2020/12/25 10:31:11;;;;;;;23.17;15.90;;;281.80;2201.60;;;;;;5074133;28;20118;-53
2020/12/25 10:33:38;;;;;;;27.88;16.77;;;281.70;2201.60;;;;;;5074640;28;20391;-54
2020/12/25 10:36:03;;;;;;;23.40;17.83;;;281.80;2201.60;;;;;;5074364;28;20024;-57
2020/12/25 10:38:29;;;;;;;25.75;17.98;;;281.80;2176.00;;;;;;5074310;28;20551;-54
2020/12/25 10:40:55;;;;;;;25.83;18.48;;;281.60;2176.00;;;;;;5073553;28;20094;-54
2020/12/25 10:43:20;;;;;;;23.83;17.98;;;281.60;2201.60;;;;;;5074115;28;20033;-54
2020/12/25 10:45:46;;;;;;;25.77;18.95;;;256.80;2176.00;;;;;;5073389;28;20055;-55
2020/12/25 10:48:12;;;;;;;32.22;20.92;;;281.60;2252.80;;;;;;5073994;28;20032;-55
2020/12/25 10:50:38;;;;;;;27.45;17.70;;;281.60;2252.80;;;;;;5055621;28;20443;-54
2020/12/25 10:53:03;;;;;;;29.55;20.00;;;281.60;2201.60;;;;;;5073207;28;20024;-55
2020/12/25 10:55:29;;;;;;;32.85;23.00;;;281.70;2201.60;;;;;;5073716;28;20009;-54
2020/12/25 10:57:55;;;;;;;31.80;20.95;;;281.70;2201.60;;;;;;5073321;28;20059;-55
2020/12/25 11:00:20;;;;;;;27.40;19.42;;;281.80;2227.20;;;;;;5073440;28;20020;-54
2020/12/25 11:02:46;;;;;;;25.67;20.00;;;281.70;2201.60;;;;;;5073226;28;20498;-54
2020/12/25 11:05:15;;;;;;;33.08;21.80;;;281.70;2201.60;;;;;;5073397;28;20367;-55
2020/12/25 11:07:40;;;;;;;33.13;22.48;;;281.80;2201.60;;;;;;5072986;28;20044;-54
2020/12/25 11:10:06;;;;;;;31.00;20.63;;;281.70;2201.60;;;;;;5073201;28;20540;-55
2020/12/25 11:12:31;;;;;;;28.92;21.15;;;281.80;2227.20;;;;;;5072953;28;20525;-53
2020/12/25 11:14:57;;;;;;;27.83;20.00;;;281.80;2227.20;;;;;;5073233;28;20029;-55
2020/12/25 11:17:23;;;;;;;26.08;17.67;;;281.90;2227.20;;;;;;5073714;28;20486;-56
2020/12/25 11:19:48;;;;;;;23.35;14.93;;;282.00;2176.00;;;;;;5073791;28;20029;-55
2020/12/25 11:22:14;;;;;;;16.55;12.02;;;282.00;2150.40;;;;;;5073779;28;20039;-56
2020/12/25 11:24:43;;;;;;;13.55;9.73;;;281.70;2124.80;;;;;;5073597;28;20056;-54
2020/12/25 11:27:10;;;;;;;11.73;8.55;;;281.80;2150.40;;;;;;5073456;28;20036;-53
2020/12/25 11:29:36;;;;;;;16.08;10.88;;;281.80;2150.40;;;;;;5073398;28;20092;-56
2020/12/25 11:32:01;;;;;;;13.43;10.07;;;281.80;2176.00;;;;;;5073256;28;20108;-55
2020/12/25 11:34:27;;;;;;;13.57;9.98;;;281.90;2176.00;;;;;;5074025;28;20031;-54
2020/12/25 11:36:53;;;;;;;14.80;11.32;;;281.90;2150.40;;;;;;5073192;28;20029;-55
2020/12/25 11:39:18;;;;;;;15.82;11.73;;;282.00;2150.40;;;;;;5073154;28;20021;-55
2020/12/25 11:41:44;;;;;;;13.95;11.05;;;282.00;2176.00;;;;;;5073017;28;20040;-58
2020/12/25 11:44:10;;;;;;;14.63;10.75;;;281.90;2124.80;;;;;;5073468;28;20028;-55
2020/12/25 11:46:36;;;;;;;15.43;11.88;;;282.00;2150.40;;;;;;5071802;28;20441;-56
2020/12/25 11:49:06;;;;;;;14.65;12.05;;;282.00;2176.00;;;;;;5055206;28;20032;-56
2020/12/25 11:51:33;;;;;;;13.10;9.45;;;281.90;2176.00;;;;;;5064906;28;20100;-56
2020/12/25 11:54:00;;;;;;;11.82;9.77;;;282.00;2150.40;;;;;;5072467;28;20020;-55
2020/12/25 11:56:31;;;;;;;14.15;8.73;;;282.10;2176.00;;;;;;5072032;28;20370;-56
2020/12/25 11:59:00;;;;;;;15.15;9.40;;;281.90;2124.80;;;;;;5072645;28;20025;-56
2020/12/25 12:01:26;;;;;;;14.85;9.93;;;281.80;2150.40;;;;;;5072562;28;20044;-54
2020/12/25 12:03:52;;;;;;;15.52;9.93;;;281.80;2201.60;;;;;;5072352;28;20115;-55